Time;durP1;ratioP1;P1;durP2;ratioP2;P2;SDS_P1;SDS_P2;PMS_P1;PMS_P2;Temp;Humidity;BMP_temperature;BMP_pressure;BME280_temperature;BME280_humidity;BME280_pressure;Samples;Min_cycle;Max_cycle;Signal;HPM_P1;HPM_P2
2021/09/08 00:01:42;;;;;;;26.27;15.02;;;;;;;18.95;79.31;102009.06;5040994;28;20152;-63
2021/09/08 00:04:09;;;;;;;24.10;14.60;;;;;;;18.94;79.14;102002.09;5039165;28;20500;-62
2021/09/08 00:06:36;;;;;;;22.88;14.23;;;;;;;18.92;79.16;102009.41;5047083;28;20155;-63
2021/09/08 00:09:02;;;;;;;23.45;15.10;;;;;;;18.88;79.44;102005.44;5048501;28;20454;-62
2021/09/08 00:11:29;;;;;;;24.17;14.25;;;;;;;18.87;78.96;102005.59;5042089;28;20469;-62
2021/09/08 00:13:55;;;;;;;23.80;14.73;;;;;;;18.83;79.66;102001.63;5045257;28;20085;-62
2021/09/08 00:16:22;;;;;;;28.30;14.73;;;;;;;18.78;79.89;102005.59;5016746;28;20076;-62
2021/09/08 00:18:49;;;;;;;22.75;14.68;;;;;;;18.75;79.95;102002.47;5048722;28;20160;-63
2021/09/08 00:21:15;;;;;;;25.23;14.25;;;;;;;18.71;79.66;102001.97;5040902;28;20485;-63
2021/09/08 00:23:42;;;;;;;22.20;15.05;;;;;;;18.65;79.93;102000.00;5048923;28;20174;-63
2021/09/08 00:26:08;;;;;;;24.23;14.80;;;;;;;18.65;80.27;102007.16;5047691;28;20132;-63
2021/09/08 00:28:34;;;;;;;22.83;14.30;;;;;;;18.62;80.50;101996.84;5039241;28;20128;-63
2021/09/08 00:31:01;;;;;;;22.65;14.55;;;;;;;18.55;80.56;101994.88;5042881;28;20471;-63
2021/09/08 00:33:27;;;;;;;22.17;14.25;;;;;;;18.52;80.58;101994.38;5042414;28;20067;-63
2021/09/08 00:35:54;;;;;;;25.48;15.32;;;;;;;18.53;80.62;101996.06;5046334;28;20072;-62
2021/09/08 00:38:21;;;;;;;22.70;14.95;;;;;;;18.50;80.49;101991.06;5042664;28;20145;-63
2021/09/08 00:40:47;;;;;;;25.45;14.35;;;;;;;18.47;80.26;101986.13;5047166;28;20087;-62
2021/09/08 00:43:14;;;;;;;26.30;15.70;;;;;;;18.45;80.67;101982.81;5044655;28;20468;-63
2021/09/08 00:45:40;;;;;;;24.92;15.13;;;;;;;18.46;80.85;101989.75;5036835;28;20084;-62
2021/09/08 00:48:07;;;;;;;20.20;14.15;;;;;;;18.43;80.29;101988.28;5048677;28;20120;-63
2021/09/08 00:50:33;;;;;;;21.13;13.10;;;;;;;18.35;81.10;101981.16;5041155;28;20143;-63
2021/09/08 00:53:00;;;;;;;24.40;14.70;;;;;;;18.32;81.54;101988.63;5048527;28;20079;-63
2021/09/08 00:55:27;;;;;;;20.80;14.50;;;;;;;18.25;81.55;101985.84;5041600;28;20370;-63
2021/09/08 00:57:53;;;;;;;22.27;15.65;;;;;;;18.25;82.11;101979.66;5046225;28;20080;-63
2021/09/08 01:00:20;;;;;;;21.88;14.88;;;;;;;18.16;82.92;101977.03;5047831;28;20160;-63
2021/09/08 01:02:46;;;;;;;26.27;15.95;;;;;;;18.12;82.59;101965.09;5046304;28;20551;-63
2021/09/08 01:05:14;;;;;;;25.83;16.13;;;;;;;18.10;83.09;101969.75;5050243;28;20103;-63
2021/09/08 01:07:41;;;;;;;26.85;15.68;;;;;;;18.09;82.59;101967.25;5045966;28;20052;-63
2021/09/08 01:10:08;;;;;;;27.90;16.15;;;;;;;18.08;83.20;101970.91;5030619;28;20128;-63
2021/09/08 01:12:34;;;;;;;26.10;15.07;;;;;;;18.06;82.62;101965.75;5040302;28;20076;-63
2021/09/08 01:15:01;;;;;;;24.30;14.73;;;;;;;18.06;82.95;101965.75;5032108;28;20076;-63
2021/09/08 01:17:28;;;;;;;25.63;15.63;;;;;;;18.03;82.93;101962.63;5048554;28;20088;-63
2021/09/08 01:19:54;;;;;;;22.20;15.07;;;;;;;18.05;82.54;101971.22;5045167;28;20087;-62
2021/09/08 01:22:30;;;;;;;23.40;15.40;;;;;;;18.04;82.60;101966.94;5052073;28;20057;-63
2021/09/08 01:24:57;;;;;;;23.70;15.85;;;;;;;17.96;83.58;101965.94;5040074;28;20473;-63
2021/09/08 01:27:25;;;;;;;26.92;15.73;;;;;;;17.94;83.41;101972.44;5047948;28;20140;-63
2021/09/08 01:29:51;;;;;;;25.05;15.27;;;;;;;17.95;83.37;101966.09;5045021;28;20091;-63
2021/09/08 01:32:18;;;;;;;24.30;15.05;;;;;;;17.88;83.39;101965.94;5052541;28;20088;-62
2021/09/08 01:34:45;;;;;;;26.10;16.30;;;;;;;17.90;83.91;101963.97;5048719;28;20052;-62
2021/09/08 01:37:11;;;;;;;24.15;14.77;;;;;;;17.86;84.41;101962.63;5048018;28;20124;-63
2021/09/08 01:39:37;;;;;;;26.25;16.33;;;;;;;17.84;83.85;101958.47;5046488;28;20527;-63
2021/09/08 01:42:04;;;;;;;26.23;16.17;;;;;;;17.82;83.74;101955.13;5021433;28;20080;-62
2021/09/08 01:44:30;;;;;;;26.88;15.60;;;;;;;17.78;83.18;101952.00;5050992;28;20076;-62
2021/09/08 01:46:57;;;;;;;29.38;16.77;;;;;;;17.76;83.33;101951.34;5027970;28;20148;-63
2021/09/08 01:49:23;;;;;;;24.83;17.05;;;;;;;17.74;83.48;101956.81;5049022;28;20142;-63
2021/09/08 01:51:50;;;;;;;26.30;16.92;;;;;;;17.75;83.02;101953.13;5045563;28;20118;-62
2021/09/08 01:54:16;;;;;;;25.63;16.33;;;;;;;17.70;83.21;101949.31;5041473;28;21464;-62
2021/09/08 01:56:43;;;;;;;26.90;15.48;;;;;;;17.70;83.00;101952.81;5049235;28;20080;-62
2021/09/08 01:59:09;;;;;;;28.08;17.55;;;;;;;17.71;83.40;101957.13;5043370;28;20144;-63
2021/09/08 02:01:36;;;;;;;31.65;18.45;;;;;;;17.70;81.92;101954.63;5050328;28;20149;-63
2021/09/08 02:04:03;;;;;;;31.92;19.23;;;;;;;17.68;82.44;101946.00;5041442;28;20053;-63
2021/09/08 02:06:29;;;;;;;33.53;19.42;;;;;;;17.66;83.01;101953.31;5046862;28;20086;-63
2021/09/08 02:08:58;;;;;;;37.63;21.05;;;;;;;17.62;83.15;101949.31;5037262;28;20064;-63
2021/09/08 02:11:26;;;;;;;39.90;21.52;;;;;;;17.61;83.40;101953.00;5045810;28;20102;-63
2021/09/08 02:13:53;;;;;;;30.25;19.85;;;;;;;17.61;82.81;101955.63;5049057;28;20136;-62
2021/09/08 02:16:22;;;;;;;37.00;20.73;;;;;;;17.59;82.41;101948.66;5045346;28;20109;-63
2021/09/08 02:18:51;;;;;;;35.90;20.73;;;;;;;17.55;82.80;101954.47;5050157;28;20412;-63
2021/09/08 02:21:18;;;;;;;32.03;19.73;;;;;;;17.53;82.63;101951.97;5041410;28;20448;-63
2021/09/08 02:23:45;;;;;;;30.77;20.35;;;;;;;17.50;82.76;101952.28;5045012;28;20088;-63
2021/09/08 02:26:12;;;;;;;34.63;19.70;;;;;;;17.48;83.33;101943.69;5044966;28;20142;-63
2021/09/08 02:28:39;;;;;;;33.25;19.80;;;;;;;17.46;83.32;101948.31;5049266;28;20049;-63
2021/09/08 02:31:06;;;;;;;35.15;20.23;;;;;;;17.43;83.63;101945.19;5051151;28;20088;-63
2021/09/08 02:33:33;;;;;;;35.87;20.03;;;;;;;17.41;83.37;101947.19;5042610;28;20114;-63
2021/09/08 02:36:00;;;;;;;32.67;19.20;;;;;;;17.42;83.45;101943.50;5049521;28;20357;-63
2021/09/08 02:38:27;;;;;;;34.85;19.60;;;;;;;17.39;83.22;101937.56;5043778;28;20077;-62
2021/09/08 02:40:54;;;;;;;35.47;20.58;;;;;;;17.35;84.13;101938.06;5050290;28;20132;-63
2021/09/08 02:43:21;;;;;;;33.55;19.05;;;;;;;17.35;83.51;101941.53;5042453;28;20610;-63
2021/09/08 02:45:47;;;;;;;34.05;19.33;;;;;;;17.30;84.13;101933.22;5045001;28;20566;-63
2021/09/08 02:48:14;;;;;;;36.67;20.42;;;;;;;17.30;84.22;101938.53;5044074;28;20140;-62
2021/09/08 02:50:40;;;;;;;31.75;19.50;;;;;;;17.27;84.26;101924.75;5042521;28;20060;-63
2021/09/08 02:53:07;;;;;;;35.08;19.83;;;;;;;17.26;84.90;101923.94;5049786;28;20437;-63
2021/09/08 02:55:33;;;;;;;31.65;19.55;;;;;;;17.22;84.60;101925.25;5044037;28;20118;-63
2021/09/08 02:58:00;;;;;;;28.65;18.65;;;;;;;17.17;85.01;101925.75;5049262;28;20168;-63
2021/09/08 03:00:27;;;;;;;30.20;18.55;;;;;;;17.18;84.62;101922.09;5035845;28;20455;-63
2021/09/08 03:03:00;;;;;;;29.52;17.38;;;;;;;17.19;85.07;101923.78;5046381;28;20056;-63
2021/09/08 03:05:30;;;;;;;30.58;17.98;;;;;;;17.19;83.86;101918.47;5046657;28;20057;-63
2021/09/08 03:07:57;;;;;;;31.77;18.33;;;;;;;17.17;84.14;101922.25;5045051;28;20468;-63
2021/09/08 03:10:23;;;;;;;27.60;17.23;;;;;;;17.11;85.32;101920.25;5048374;28;20473;-63
2021/09/08 03:12:49;;;;;;;27.98;17.83;;;;;;;17.08;85.34;101918.78;5037682;28;20088;-63
2021/09/08 03:15:16;;;;;;;29.70;18.58;;;;;;;17.04;85.17;101920.09;5045635;28;20133;-63
2021/09/08 03:17:43;;;;;;;29.33;18.42;;;;;;;16.99;85.42;101919.72;5038819;28;20455;-62
2021/09/08 03:20:10;;;;;;;27.40;17.38;;;;;;;16.95;86.08;101916.56;5049464;28;20472;-62
2021/09/08 03:22:36;;;;;;;26.40;18.00;;;;;;;16.92;86.42;101919.56;5048950;28;20504;-63
2021/09/08 03:25:04;;;;;;;29.67;18.10;;;;;;;16.89;86.71;101917.22;5043372;28;20132;-62
2021/09/08 03:27:31;;;;;;;29.92;17.60;;;;;;;16.89;86.38;101921.69;5044557;28;20041;-63
2021/09/08 03:29:57;;;;;;;30.17;18.42;;;;;;;16.87;86.96;101921.03;5038775;28;20076;-63
2021/09/08 03:32:23;;;;;;;31.98;18.70;;;;;;;16.87;86.75;101915.72;5047521;28;20128;-63
2021/09/08 03:34:50;;;;;;;31.00;16.80;;;;;;;16.85;86.27;101907.94;5043867;28;20095;-63
2021/09/08 03:37:16;;;;;;;27.83;17.75;;;;;;;16.86;86.33;101909.63;5049042;28;20077;-62
2021/09/08 03:39:43;;;;;;;29.20;17.92;;;;;;;16.86;86.72;101912.25;5041987;28;20137;-63
2021/09/08 03:42:09;;;;;;;31.75;18.20;;;;;;;16.81;86.95;101906.56;5042704;28;20127;-63
2021/09/08 03:44:36;;;;;;;31.55;17.92;;;;;;;16.75;87.35;101902.75;5044517;28;20556;-63
2021/09/08 03:47:03;;;;;;;28.75;17.95;;;;;;;16.73;87.95;101895.97;5041685;28;20148;-63
2021/09/08 03:49:29;;;;;;;32.83;19.52;;;;;;;16.71;87.68;101897.94;5032757;28;20447;-62
2021/09/08 03:51:55;;;;;;;31.27;18.67;;;;;;;16.70;88.04;101899.75;5041615;28;20131;-63
2021/09/08 03:54:22;;;;;;;30.50;18.27;;;;;;;16.66;87.74;101898.44;5048969;28;20131;-63
2021/09/08 03:56:48;;;;;;;30.65;18.35;;;;;;;16.66;88.00;101898.44;5035416;28;20493;-62
2021/09/08 03:59:15;;;;;;;32.30;17.92;;;;;;;16.63;87.85;101889.97;5048495;28;20582;-62
2021/09/08 04:01:42;;;;;;;29.13;18.25;;;;;;;16.64;87.82;101894.25;5047190;28;20095;-62
2021/09/08 04:04:09;;;;;;;32.17;18.33;;;;;;;16.62;88.25;101891.75;5024871;28;20868;-62
2021/09/08 04:06:35;;;;;;;30.08;17.92;;;;;;;16.61;87.90;101887.47;5046937;28;20136;-62
2021/09/08 04:09:02;;;;;;;30.20;18.88;;;;;;;16.58;88.26;101893.94;5038974;28;20123;-62
2021/09/08 04:11:28;;;;;;;27.60;17.45;;;;;;;16.55;88.38;101888.13;5044060;28;20063;-63
2021/09/08 04:13:55;;;;;;;24.42;16.17;;;;;;;16.52;88.90;101888.41;5042728;28;20486;-62
2021/09/08 04:16:21;;;;;;;28.23;19.00;;;;;;;16.47;89.45;101883.63;5047362;28;20076;-63
2021/09/08 04:18:48;;;;;;;27.08;16.95;;;;;;;16.47;88.94;101886.25;5048673;28;20053;-63
2021/09/08 04:21:14;;;;;;;29.42;17.23;;;;;;;16.45;89.65;101879.47;5040962;28;20092;-63
2021/09/08 04:23:41;;;;;;;32.38;18.13;;;;;;;16.39;89.97;101871.16;5028276;28;20045;-62
2021/09/08 04:26:07;;;;;;;30.20;18.33;;;;;;;16.45;90.08;101882.94;5036850;28;20088;-63
2021/09/08 04:28:34;;;;;;;28.65;17.55;;;;;;;16.45;89.87;101872.34;5048965;28;20076;-62
2021/09/08 04:31:00;;;;;;;27.75;18.27;;;;;;;16.45;89.83;101874.19;5040965;28;20049;-63
2021/09/08 04:33:27;;;;;;;31.48;18.13;;;;;;;16.41;90.26;101873.66;5052861;28;20118;-63
2021/09/08 04:35:56;;;;;;;27.13;17.42;;;;;;;16.44;90.15;101878.63;5043699;28;20092;-64
2021/09/08 04:38:26;;;;;;;30.15;18.15;;;;;;;16.45;89.25;101863.59;5029350;28;20052;-63
2021/09/08 04:40:52;;;;;;;27.98;17.13;;;;;;;16.43;90.01;101869.03;5046537;28;20087;-62
2021/09/08 04:43:19;;;;;;;32.63;17.15;;;;;;;16.46;89.70;101868.69;5046984;28;20085;-63
2021/09/08 04:45:45;;;;;;;28.30;17.77;;;;;;;16.43;89.31;101868.22;5052014;28;20102;-63
2021/09/08 04:48:13;;;;;;;30.15;17.52;;;;;;;16.43;89.72;101868.22;5027480;28;20048;-63
2021/09/08 04:50:40;;;;;;;31.17;17.98;;;;;;;16.41;90.24;101869.19;5046518;28;20476;-63
2021/09/08 04:53:07;;;;;;;30.20;19.13;;;;;;;16.40;90.00;101864.03;5040095;28;20136;-63
2021/09/08 04:55:34;;;;;;;31.20;18.45;;;;;;;16.45;89.55;101863.59;5049866;28;20076;-62
2021/09/08 04:58:01;;;;;;;32.80;18.73;;;;;;;16.40;90.28;101861.41;5052128;28;20073;-63
2021/09/08 05:00:29;;;;;;;31.88;19.88;;;;;;;16.41;90.25;101861.25;5044752;28;20133;-63
2021/09/08 05:02:55;;;;;;;30.27;19.42;;;;;;;16.37;89.56;101854.59;5051642;28;20048;-63
2021/09/08 05:05:22;;;;;;;28.00;17.98;;;;;;;16.39;89.61;101863.22;5041103;28;20102;-63
2021/09/08 05:07:50;;;;;;;32.00;18.88;;;;;;;16.43;90.40;101863.75;5046110;28;20045;-63
2021/09/08 05:10:16;;;;;;;30.50;17.95;;;;;;;16.41;89.40;101855.13;5042563;28;20144;-62
2021/09/08 05:12:43;;;;;;;32.13;20.02;;;;;;;16.39;90.17;101862.41;5034949;28;20095;-63
2021/09/08 05:15:10;;;;;;;30.83;18.65;;;;;;;16.40;90.22;101856.09;5051055;28;20503;-63
2021/09/08 05:17:37;;;;;;;30.65;19.10;;;;;;;16.42;89.60;101862.06;5043789;28;20634;-63
2021/09/08 05:20:05;;;;;;;32.92;19.20;;;;;;;16.40;89.76;101859.56;5044883;28;20081;-62
2021/09/08 05:22:32;;;;;;;34.80;22.27;;;;;;;16.39;89.68;101862.41;5041320;28;20077;-63
2021/09/08 05:24:58;;;;;;;35.72;21.17;;;;;;;16.37;90.62;101862.56;5051255;28;20139;-61
2021/09/08 05:27:25;;;;;;;31.77;18.95;;;;;;;16.34;89.78;101862.84;5044110;28;20056;-63
2021/09/08 05:29:51;;;;;;;28.90;18.45;;;;;;;16.31;89.85;101852.59;5051038;28;20155;-63
2021/09/08 05:32:18;;;;;;;30.42;19.60;;;;;;;16.30;91.02;101850.09;5051160;28;20480;-63
2021/09/08 05:34:44;;;;;;;28.33;18.60;;;;;;;16.29;90.88;101853.72;5039358;28;20151;-62
2021/09/08 05:37:11;;;;;;;30.90;19.65;;;;;;;16.30;91.43;101858.06;5049996;28;20139;-63
2021/09/08 05:39:37;;;;;;;32.22;20.40;;;;;;;16.30;91.15;101861.53;5043895;28;20832;-64
2021/09/08 05:42:04;;;;;;;30.58;19.77;;;;;;;16.29;91.58;101859.03;5051566;28;20067;-63
2021/09/08 05:44:31;;;;;;;29.38;17.73;;;;;;;16.29;92.12;101851.94;5027483;28;20080;-63
2021/09/08 05:46:57;;;;;;;32.08;18.50;;;;;;;16.30;91.75;101856.22;5049261;28;20272;-63
2021/09/08 05:49:24;;;;;;;29.88;18.10;;;;;;;16.31;91.79;101857.06;5046533;28;20136;-63
2021/09/08 05:51:50;;;;;;;29.83;18.50;;;;;;;16.32;92.03;101862.19;5043654;28;20091;-63
2021/09/08 05:54:16;;;;;;;31.95;19.42;;;;;;;16.33;91.34;101861.22;5051099;28;20079;-63
2021/09/08 05:56:43;;;;;;;31.90;19.00;;;;;;;16.36;92.01;101860.06;5044239;28;20753;-63
2021/09/08 05:59:09;;;;;;;31.80;18.05;;;;;;;16.37;92.27;101856.44;5050685;28;20087;-63
2021/09/08 06:01:36;;;;;;;32.90;19.27;;;;;;;16.41;91.77;101860.41;5037866;28;20103;-63
2021/09/08 06:04:03;;;;;;;34.05;18.42;;;;;;;16.45;91.84;101858.28;5049051;28;20449;-63
2021/09/08 06:06:30;;;;;;;29.75;18.73;;;;;;;16.45;91.58;101860.94;5051025;28;20049;-63
2021/09/08 06:08:56;;;;;;;30.50;19.48;;;;;;;16.49;91.70;101862.28;5043456;28;20427;-63
2021/09/08 06:11:23;;;;;;;29.25;19.08;;;;;;;16.50;91.94;101863.91;5050556;28;20462;-63
2021/09/08 06:13:49;;;;;;;33.55;18.38;;;;;;;16.52;91.39;101865.41;5039561;28;20095;-63
2021/09/08 06:16:16;;;;;;;30.98;18.85;;;;;;;16.57;92.17;101867.59;5030009;28;20136;-63
2021/09/08 06:18:43;;;;;;;29.75;18.10;;;;;;;16.58;92.24;101879.84;5042408;28;20392;-62
2021/09/08 06:21:11;;;;;;;30.58;17.63;;;;;;;16.61;91.67;101860.97;5050529;28;20763;-62
2021/09/08 06:23:37;;;;;;;31.77;19.33;;;;;;;16.65;91.47;101864.16;5030797;28;20080;-62
2021/09/08 06:26:04;;;;;;;33.85;19.90;;;;;;;16.68;92.36;101867.31;5044631;28;20071;-63
2021/09/08 06:28:30;;;;;;;27.83;17.88;;;;;;;16.71;92.14;101866.97;5042890;28;20053;-63
2021/09/08 06:30:57;;;;;;;32.15;19.45;;;;;;;16.73;92.74;101864.16;5040676;28;20128;-63
2021/09/08 06:33:23;;;;;;;31.92;19.30;;;;;;;16.74;93.28;101856.06;5046916;28;20144;-63
2021/09/08 06:35:50;;;;;;;30.52;18.33;;;;;;;16.80;93.14;101844.00;5043585;28;20079;-63
2021/09/08 06:38:16;;;;;;;34.60;20.00;;;;;;;16.83;94.36;101842.84;5048627;28;20086;-61
2021/09/08 06:40:43;;;;;;;30.85;19.00;;;;;;;16.86;94.75;101840.72;5049315;28;20148;-63
2021/09/08 06:43:09;;;;;;;27.92;18.05;;;;;;;16.91;94.13;101846.34;5018904;28;20072;-62
2021/09/08 06:45:36;;;;;;;27.83;17.05;;;;;;;16.96;92.58;101838.75;5049750;28;20080;-63
2021/09/08 06:48:03;;;;;;;29.70;17.77;;;;;;;17.00;93.13;101842.72;5042235;28;20041;-63
2021/09/08 06:50:29;;;;;;;29.90;17.52;;;;;;;17.08;92.53;101838.44;5050583;28;20163;-63
2021/09/08 06:52:56;;;;;;;25.58;16.33;;;;;;;17.12;91.91;101847.69;5040550;28;20151;-63
2021/09/08 06:55:23;;;;;;;32.47;17.75;;;;;;;17.15;90.91;101837.59;5045893;28;20331;-63
2021/09/08 06:57:50;;;;;;;29.45;17.58;;;;;;;17.16;90.66;101836.59;5045194;28;20057;-63
2021/09/08 07:00:16;;;;;;;31.92;16.98;;;;;;;17.22;90.68;101834.28;5043985;28;20166;-63
2021/09/08 07:02:43;;;;;;;20.05;13.10;;;;;;;17.28;89.24;101834.44;5047093;28;20131;-63
2021/09/08 07:05:10;;;;;;;24.02;15.13;;;;;;;17.33;89.22;101834.78;5042898;28;20052;-63
2021/09/08 07:07:37;;;;;;;19.10;12.23;;;;;;;17.39;88.57;101825.34;5049524;28;20053;-63
2021/09/08 07:10:04;;;;;;;23.08;15.50;;;;;;;17.42;88.79;101826.81;5038441;28;20072;-63
2021/09/08 07:12:30;;;;;;;26.45;18.75;;;;;;;17.45;89.12;101829.16;5045118;28;20103;-63
2021/09/08 07:14:57;;;;;;;32.53;19.27;;;;;;;17.49;89.74;101818.03;5044880;28;20049;-63
2021/09/08 07:17:23;;;;;;;31.88;18.10;;;;;;;17.53;90.50;101822.00;5045903;28;20544;-63
2021/09/08 07:19:50;;;;;;;27.50;16.65;;;;;;;17.59;89.29;101823.97;5049393;28;20056;-62
2021/09/08 07:22:16;;;;;;;19.80;13.18;;;;;;;17.67;87.59;101817.00;5042234;28;20441;-62
2021/09/08 07:24:43;;;;;;;28.08;16.67;;;;;;;17.71;87.55;101816.50;5044612;28;20072;-63
2021/09/08 07:27:09;;;;;;;25.70;17.27;;;;;;;17.73;88.37;101818.97;5041947;28;20068;-63
2021/09/08 07:29:36;;;;;;;24.52;16.13;;;;;;;17.76;87.92;101814.16;5050367;28;20127;-63
2021/09/08 07:32:05;;;;;;;25.02;16.42;;;;;;;17.80;88.89;101806.69;5041744;28;20131;-63
2021/09/08 07:34:31;;;;;;;26.80;16.55;;;;;;;17.86;87.59;101803.41;5049828;28;20523;-63
2021/09/08 07:36:58;;;;;;;24.38;16.35;;;;;;;17.91;87.43;101808.19;5044171;28;20139;-62
2021/09/08 07:39:25;;;;;;;23.35;15.75;;;;;;;17.95;87.90;101805.03;5038791;28;20087;-63
2021/09/08 07:41:51;;;;;;;26.38;17.17;;;;;;;17.98;88.90;101799.38;5047541;28;20072;-63
2021/09/08 07:44:18;;;;;;;27.67;17.35;;;;;;;18.00;89.68;101807.16;5043444;28;20057;-63
2021/09/08 07:46:44;;;;;;;30.50;17.83;;;;;;;18.06;88.74;101814.44;5049240;28;20429;-64
2021/09/08 07:49:11;;;;;;;27.52;16.67;;;;;;;18.10;88.29;101812.28;5042151;28;20037;-63
2021/09/08 07:51:37;;;;;;;20.77;13.95;;;;;;;18.17;88.10;101814.06;5041175;28;20496;-63
2021/09/08 07:54:04;;;;;;;24.67;16.58;;;;;;;18.24;88.81;101814.19;5029793;28;20080;-63
2021/09/08 07:56:30;;;;;;;27.40;17.33;;;;;;;18.29;88.28;101803.91;5041690;28;20095;-63
2021/09/08 07:58:57;;;;;;;25.38;17.38;;;;;;;18.33;88.85;101804.38;5048071;28;20140;-63
2021/09/08 08:01:23;;;;;;;25.15;16.20;;;;;;;18.41;88.28;101796.38;5041086;28;20052;-63
2021/09/08 08:03:50;;;;;;;26.88;16.58;;;;;;;18.45;88.66;101802.97;5042899;28;20053;-63
2021/09/08 08:06:17;;;;;;;27.92;17.38;;;;;;;18.54;88.09;101798.44;5039817;28;20152;-63
2021/09/08 08:08:44;;;;;;;25.75;17.42;;;;;;;18.59;87.43;101798.75;5050736;28;20080;-63
2021/09/08 08:11:10;;;;;;;25.83;16.88;;;;;;;18.70;86.30;101795.69;5051577;28;20052;-63
2021/09/08 08:13:36;;;;;;;20.60;12.63;;;;;;;18.87;85.13;101790.28;5044873;28;20507;-63
2021/09/08 08:16:07;;;;;;;24.55;15.20;;;;;;;18.98;85.55;101784.56;5051795;28;20055;-63
2021/09/08 08:18:34;;;;;;;22.80;15.52;;;;;;;19.10;86.11;101782.28;5040871;28;20127;-63
2021/09/08 08:21:00;;;;;;;23.92;15.88;;;;;;;19.24;86.66;101780.66;5051439;28;20098;-62
2021/09/08 08:23:28;;;;;;;27.98;17.48;;;;;;;19.40;85.94;101785.81;5046865;28;20088;-63
2021/09/08 08:25:54;;;;;;;24.80;17.23;;;;;;;19.53;85.88;101779.91;5034270;28;20087;-63
2021/09/08 08:28:21;;;;;;;29.80;16.25;;;;;;;19.69;84.87;101787.69;5052601;28;20171;-63
2021/09/08 08:30:52;;;;;;;22.08;15.52;;;;;;;19.89;84.10;101785.31;5042119;28;20091;-63
2021/09/08 08:33:18;;;;;;;25.77;16.58;;;;;;;20.10;83.11;101786.44;5048189;28;20065;-63
2021/09/08 08:35:45;;;;;;;27.10;16.42;;;;;;;20.31;82.57;101788.31;5045751;28;20469;-63
2021/09/08 08:38:11;;;;;;;27.08;16.60;;;;;;;20.47;82.47;101788.09;5052052;28;20048;-63
2021/09/08 08:40:38;;;;;;;21.30;13.98;;;;;;;20.74;79.24;101783.06;5044306;28;20531;-63
2021/09/08 08:43:04;;;;;;;21.13;15.77;;;;;;;21.00;78.97;101789.66;5052625;28;20077;-64
2021/09/08 08:45:31;;;;;;;23.92;15.73;;;;;;;21.17;77.94;101785.69;5047105;28;20124;-64
2021/09/08 08:47:58;;;;;;;22.77;15.13;;;;;;;21.37;77.04;101783.19;5042328;28;20080;-64
2021/09/08 08:50:26;;;;;;;25.77;15.18;;;;;;;21.57;77.12;101779.84;5050948;28;20134;-64
2021/09/08 08:52:54;;;;;;;;;;;;;;;21.79;73.75;101780.56;5026592;28;20071;-64
2021/09/08 08:55:21;;;;;;;20.73;12.90;;;;;;;22.00;70.75;101777.81;5052438;28;20008;-64
2021/09/08 08:57:50;;;;;;;17.83;12.20;;;;;;;22.15;69.60;101774.16;5044979;28;20052;-64
2021/09/08 09:00:22;;;;;;;18.13;12.70;;;;;;;22.39;69.92;101780.84;5045036;28;20122;-64
2021/09/08 09:02:50;;;;;;;19.08;12.10;;;;;;;22.59;68.17;101776.38;5049012;28;20120;-62
2021/09/08 09:05:40;;;;;;;16.88;11.60;;;;;;;22.75;67.47;101775.16;5049041;28;20060;-64
2021/09/08 09:08:09;;;;;;;20.80;11.73;;;;;;;22.94;67.33;101770.03;5050784;28;20132;-64
2021/09/08 09:10:38;;;;;;;22.95;13.10;;;;;;;23.06;66.52;101766.56;5044441;28;20051;-64
2021/09/08 09:13:05;;;;;;;20.92;13.18;;;;;;;23.25;64.92;101769.44;5046963;28;20049;-64
2021/09/08 09:15:31;;;;;;;20.27;11.98;;;;;;;23.45;65.56;101772.88;5040697;28;20118;-65
2021/09/08 09:17:58;;;;;;;23.90;13.05;;;;;;;23.53;62.68;101760.31;5049822;28;20121;-64
2021/09/08 09:20:30;;;;;;;18.00;12.00;;;;;;;23.72;63.58;101755.91;5044317;28;20044;-64
2021/09/08 09:22:59;;;;;;;25.38;13.30;;;;;;;23.89;64.12;101757.13;5051252;28;20128;-64
2021/09/08 09:25:28;;;;;;;24.35;13.10;;;;;;;23.99;63.54;101757.50;5050164;28;20104;-64
2021/09/08 09:27:57;;;;;;;17.85;12.55;;;;;;;24.12;63.61;101745.06;5038834;28;20504;-64
2021/09/08 09:30:26;;;;;;;23.10;12.82;;;;;;;24.31;63.15;101743.34;5050484;28;20092;-64
2021/09/08 09:32:54;;;;;;;17.70;12.10;;;;;;;24.49;62.27;101746.09;5044540;28;20144;-64
2021/09/08 09:35:24;;;;;;;15.90;10.63;;;;;;;24.70;61.36;101741.41;5051538;28;20140;-64
2021/09/08 09:37:53;;;;;;;19.67;13.00;;;;;;;24.76;60.86;101736.03;5044834;28;20096;-64
2021/09/08 09:40:31;;;;;;;20.30;12.43;;;;;;;24.94;59.19;101735.25;5046664;28;20359;-64
2021/09/08 09:43:06;;;;;;;18.20;11.52;;;;;;;25.17;59.12;101740.00;5038977;28;20085;-64
2021/09/08 09:45:35;;;;;;;18.65;12.68;;;;;;;25.29;58.30;101732.06;5051144;28;20088;-64
2021/09/08 09:48:03;;;;;;;21.85;12.30;;;;;;;25.49;58.25;101733.72;5050922;28;20068;-65
2021/09/08 09:50:30;;;;;;;19.65;11.90;;;;;;;25.69;58.03;101733.47;5044956;28;20103;-64
2021/09/08 09:52:57;;;;;;;22.67;12.52;;;;;;;25.80;57.37;101730.03;5048824;28;20084;-64
2021/09/08 09:55:25;;;;;;;23.15;13.20;;;;;;;25.93;56.30;101724.50;5041863;28;20053;-64
2021/09/08 09:57:53;;;;;;;;;;;;;;;26.10;56.28;101722.00;5045864;28;20095;-64
2021/09/08 10:00:21;;;;;;;19.67;12.88;;;;;;;26.30;55.24;101719.03;5044674;28;19921;-65
2021/09/08 10:02:49;;;;;;;22.23;12.80;;;;;;;26.40;54.39;101719.31;5048975;28;20136;-64
2021/09/08 10:05:16;;;;;;;20.35;11.73;;;;;;;26.57;54.71;101713.25;5046904;28;20041;-64
2021/09/08 10:07:43;;;;;;;22.27;12.80;;;;;;;26.70;55.92;101707.69;5047729;28;20103;-64
2021/09/08 10:10:16;;;;;;;16.45;11.63;;;;;;;26.87;53.51;101709.66;5043825;28;20136;-64
2021/09/08 10:12:48;;;;;;;16.90;11.50;;;;;;;26.94;53.30;101699.59;5042594;28;20077;-63
2021/09/08 10:15:15;;;;;;;19.30;11.30;;;;;;;27.10;53.22;101698.88;5050969;28;20049;-64
2021/09/08 10:17:45;;;;;;;18.13;11.75;;;;;;;27.25;53.24;101697.59;5044049;28;20118;-63
2021/09/08 10:20:20;;;;;;;22.65;12.25;;;;;;;27.40;52.83;101701.47;5049815;28;20072;-64
2021/09/08 10:22:49;;;;;;;18.40;11.10;;;;;;;27.55;52.34;101700.13;5039642;28;20056;-64
2021/09/08 10:25:22;;;;;;;17.02;10.98;;;;;;;27.72;52.47;101692.13;5046191;28;20091;-64
2021/09/08 10:27:53;;;;;;;20.80;11.85;;;;;;;27.92;52.57;101695.22;5049614;28;20099;-64
2021/09/08 10:30:36;;;;;;;;;;;;;;;28.14;51.30;101692.63;5048549;28;20091;-64
2021/09/08 10:33:05;;;;;;;17.33;11.40;;;;;;;28.19;49.91;101686.53;5049750;28;20019;-64
2021/09/08 10:35:38;;;;;;;20.17;12.18;;;;;;;28.39;50.65;101686.03;5039062;28;20455;-64
2021/09/08 10:38:32;;;;;;;17.48;11.25;;;;;;;28.47;49.59;101682.94;5027590;28;20114;-64
2021/09/08 10:41:03;;;;;;;16.88;11.90;;;;;;;28.62;48.92;101674.28;5037773;28;20100;-64
2021/09/08 10:43:32;;;;;;;19.17;11.45;;;;;;;28.82;48.23;101668.38;5049544;28;20041;-64
2021/09/08 10:45:59;;;;;;;22.50;12.10;;;;;;;28.86;48.73;101674.09;5043604;28;20160;-64
2021/09/08 10:48:42;;;;;;;18.65;11.75;;;;;;;29.14;48.45;101663.16;5050010;28;20046;-64
2021/09/08 10:51:38;;;;;;;19.10;12.55;;;;;;;29.32;50.22;101658.50;5075138;27;20390;-64
2021/09/08 10:54:07;;;;;;;20.77;11.88;;;;;;;29.49;50.06;101656.53;5065227;28;20079;-64
2021/09/08 10:56:41;;;;;;;15.07;11.07;;;;;;;29.65;47.80;101651.31;5064192;28;20083;-64
2021/09/08 10:59:08;;;;;;;20.60;12.52;;;;;;;29.83;47.53;101648.25;5090518;28;20080;-64
2021/09/08 11:01:34;;;;;;;13.68;11.05;;;;;;;29.97;48.63;101648.66;5070555;28;20091;-64
2021/09/08 11:04:02;;;;;;;15.30;11.90;;;;;;;30.06;46.83;101646.31;5064510;28;20044;-64
2021/09/08 11:06:37;;;;;;;15.55;11.77;;;;;;;30.11;47.10;101641.78;5067570;28;20091;-65
2021/09/08 11:09:06;;;;;;;16.48;11.18;;;;;;;30.29;46.69;101637.84;5065371;28;20053;-64
2021/09/08 11:11:33;;;;;;;15.55;11.50;;;;;;;30.32;45.43;101637.38;5069919;28;20087;-65